Ashaiiu, Virginia
Current Conditions -  °F | °C
As of 7:54 PM on Saturday 22 Nov 2014 (Local Time) from KOFP Reporting Station
Clear Clear  
Wind Chill: 26°   Ceiling: Unl
Heat Index: 32°   Visibility: 10mi
Dew Point: 21°   Wind: 6mph
Humidity: 64%   Direction: 190°S
Pressure: 30.35"   Gusts: NA
Location:  37.7534°N, 77.495°W
Report Text: KOFP 230054Z AUTO 19005KT 10SM CLR 00/M06 A3035 RMK AO2 SLP279 T00001061
Loading
Personal Weather Stations






























Interactive Weather Map New forecast layout! Learn more

10-Day Weather Forecast

Advertisements
Track Severe Weather on mobile